createdAt,value
2019-03-23T00:01:43.348Z,61.08
2019-03-23T00:04:13.698Z,60.69
2019-03-23T00:06:44.075Z,60.94
2019-03-23T00:09:14.501Z,60.96
2019-03-23T00:11:44.822Z,60.98
2019-03-23T00:14:15.187Z,61.07
2019-03-23T00:16:45.608Z,60.97
2019-03-23T00:19:15.972Z,60.97
2019-03-23T00:21:46.351Z,60.92
2019-03-23T00:24:16.723Z,60.52
2019-03-23T00:26:47.095Z,61.44
2019-03-23T00:29:17.457Z,61.00
2019-03-23T00:31:47.840Z,61.14
2019-03-23T00:34:18.281Z,60.88
2019-03-23T00:36:48.656Z,61.08
2019-03-23T00:39:19.055Z,60.62
2019-03-23T00:41:49.422Z,61.10
2019-03-23T00:44:19.799Z,61.98
2019-03-23T00:46:50.975Z,61.92
2019-03-23T00:49:21.402Z,61.16
2019-03-23T00:51:51.776Z,61.51
2019-03-23T00:54:22.159Z,62.05
2019-03-23T00:56:52.518Z,63.11
2019-03-23T00:59:22.885Z,63.33
2019-03-23T01:01:53.248Z,62.53
2019-03-23T01:04:23.629Z,61.61
2019-03-23T01:06:53.995Z,60.96
2019-03-23T01:09:24.380Z,61.41
2019-03-23T01:11:54.746Z,60.60
2019-03-23T01:14:25.149Z,60.39
2019-03-23T01:16:55.531Z,61.15
2019-03-23T01:19:25.905Z,60.62
2019-03-23T01:21:56.293Z,60.44
2019-03-23T01:24:26.662Z,60.39
2019-03-23T01:26:57.065Z,59.99
2019-03-23T01:29:27.437Z,59.78
2019-03-23T01:31:57.830Z,60.46
2019-03-23T01:34:28.193Z,61.71
2019-03-23T01:37:02.663Z,61.62
2019-03-23T01:39:30.612Z,61.09
2019-03-23T01:42:00.980Z,60.62
2019-03-23T01:44:31.345Z,62.13
2019-03-23T01:47:01.707Z,62.47
2019-03-23T01:49:32.060Z,63.12
2019-03-23T01:52:02.429Z,63.46
2019-03-23T01:54:32.798Z,62.47
2019-03-23T01:57:03.162Z,61.52
2019-03-23T01:59:33.532Z,60.94
2019-03-23T02:02:03.938Z,60.87
2019-03-23T02:04:34.314Z,60.49
2019-03-23T02:07:13.462Z,60.38
2019-03-23T02:09:37.159Z,59.82
2019-03-23T02:12:07.523Z,59.50
2019-03-23T02:14:37.906Z,59.61
2019-03-23T02:17:08.284Z,59.20
2019-03-23T02:19:38.655Z,59.15
2019-03-23T02:22:09.035Z,59.13
2019-03-23T02:24:39.511Z,59.03
2019-03-23T02:27:09.891Z,58.93
2019-03-23T02:29:40.256Z,59.18
2019-03-23T02:32:10.627Z,59.59
2019-03-23T02:34:40.996Z,58.91
2019-03-23T02:37:11.343Z,59.04
2019-03-23T02:39:41.717Z,59.28
2019-03-23T02:42:12.100Z,58.63
2019-03-23T02:44:42.537Z,59.09
2019-03-23T02:47:12.901Z,58.72
2019-03-23T02:49:43.271Z,59.02
2019-03-23T02:52:13.644Z,58.94
2019-03-23T02:54:43.996Z,59.47
2019-03-23T02:57:14.366Z,59.47
2019-03-23T02:59:44.741Z,59.45
2019-03-23T03:02:15.143Z,59.39
2019-03-23T03:04:45.510Z,59.69
2019-03-23T03:07:15.884Z,59.97
2019-03-23T03:09:46.259Z,60.48
2019-03-23T03:12:16.614Z,59.86
2019-03-23T03:14:48.009Z,59.71
2019-03-23T03:17:18.344Z,59.87
2019-03-23T03:19:48.701Z,59.66
2019-03-23T03:22:19.078Z,59.60
2019-03-23T03:24:49.456Z,59.35
2019-03-23T03:27:19.836Z,59.95
2019-03-23T03:29:50.238Z,59.10
2019-03-23T03:32:20.639Z,59.19
2019-03-23T03:34:51.028Z,59.07
2019-03-23T03:37:21.377Z,58.97
2019-03-23T03:39:51.749Z,58.99
2019-03-23T03:42:22.117Z,59.61
2019-03-23T03:44:52.524Z,59.78
2019-03-23T03:47:22.960Z,59.22
2019-03-23T03:49:53.325Z,59.50
2019-03-23T03:52:23.729Z,59.54
2019-03-23T03:54:54.104Z,60.13
2019-03-23T03:57:24.444Z,60.85
2019-03-23T03:59:54.793Z,60.71
2019-03-23T04:02:25.194Z,60.11
2019-03-23T04:04:55.546Z,59.81
2019-03-23T04:07:25.929Z,60.92
2019-03-23T04:09:56.294Z,61.04
2019-03-23T04:12:26.676Z,60.21
2019-03-23T04:14:57.051Z,60.21
2019-03-23T04:17:28.083Z,60.00
2019-03-23T04:19:58.462Z,59.70
2019-03-23T04:22:28.844Z,59.50
2019-03-23T04:24:59.198Z,59.42
2019-03-23T04:27:29.569Z,59.38
2019-03-23T04:29:59.939Z,59.05
2019-03-23T04:32:30.355Z,59.33
2019-03-23T04:35:00.713Z,59.46
2019-03-23T04:37:31.145Z,59.65
2019-03-23T04:40:01.525Z,59.66
2019-03-23T04:42:31.947Z,59.97
2019-03-23T04:45:02.334Z,59.97
2019-03-23T04:47:32.688Z,60.71
2019-03-23T04:50:03.425Z,60.46
2019-03-23T04:52:33.808Z,60.57
2019-03-23T04:55:07.753Z,60.25
2019-03-23T04:57:38.574Z,59.57
2019-03-23T05:00:12.071Z,59.40
2019-03-23T05:02:42.490Z,59.16
2019-03-23T05:05:13.024Z,59.55
2019-03-23T05:07:45.271Z,60.41
2019-03-23T05:10:15.934Z,60.40
2019-03-23T05:12:46.307Z,59.26
2019-03-23T05:15:16.904Z,59.15
2019-03-23T05:17:47.277Z,59.00
2019-03-23T05:20:26.140Z,59.86
2019-03-23T05:22:56.505Z,60.10
2019-03-23T05:25:28.314Z,59.96
2019-03-23T05:27:58.969Z,59.39
2019-03-23T05:30:29.418Z,59.19
2019-03-23T05:33:01.759Z,59.70
2019-03-23T05:35:32.183Z,59.92
2019-03-23T05:38:02.521Z,60.03
2019-03-23T05:40:32.905Z,60.60
2019-03-23T05:43:03.274Z,60.29
2019-03-23T05:45:33.655Z,60.21
2019-03-23T05:48:04.115Z,59.70
2019-03-23T05:50:34.606Z,59.68
2019-03-23T05:53:05.307Z,59.79
2019-03-23T05:55:35.673Z,59.94
2019-03-23T05:58:06.074Z,59.80
2019-03-23T06:00:36.477Z,59.30
2019-03-23T06:03:06.843Z,58.90
2019-03-23T06:05:37.200Z,58.42
2019-03-23T06:08:07.553Z,59.58
2019-03-23T06:10:37.924Z,59.56
2019-03-23T06:13:08.502Z,60.18
2019-03-23T06:15:38.902Z,59.84
2019-03-23T06:18:09.251Z,60.56
2019-03-23T06:20:39.626Z,60.89
2019-03-23T06:23:09.999Z,61.13
2019-03-23T06:25:40.393Z,61.26
2019-03-23T06:28:12.201Z,61.47
2019-03-23T06:30:42.573Z,60.89
2019-03-23T06:33:12.947Z,55.16
2019-03-23T06:35:43.329Z,53.00
2019-03-23T06:38:13.714Z,51.69
2019-03-23T06:40:44.107Z,53.25
2019-03-23T06:43:14.489Z,51.60
2019-03-23T06:45:44.867Z,48.65
2019-03-23T06:48:15.269Z,46.83
2019-03-23T06:50:45.626Z,44.64
2019-03-23T06:53:15.992Z,43.91
2019-03-23T06:55:46.369Z,42.97
2019-03-23T06:58:16.750Z,42.42
2019-03-23T07:00:47.130Z,43.85
2019-03-23T07:03:17.544Z,42.75
2019-03-23T07:05:47.754Z,43.29
2019-03-23T07:08:18.133Z,41.59
2019-03-23T07:10:48.608Z,40.46
2019-03-23T07:13:18.992Z,39.59
2019-03-23T07:15:49.340Z,39.54
2019-03-23T07:18:19.714Z,38.78
2019-03-23T07:20:50.064Z,39.67
2019-03-23T07:23:20.444Z,39.49
2019-03-23T07:25:50.813Z,40.27
2019-03-23T07:28:21.181Z,40.83
2019-03-23T07:30:51.562Z,40.49
2019-03-23T07:33:21.949Z,40.45
2019-03-23T07:35:52.318Z,38.81
2019-03-23T07:38:22.939Z,37.87
2019-03-23T07:40:53.291Z,36.84
2019-03-23T07:43:23.658Z,35.72
2019-03-23T07:45:54.093Z,34.84
2019-03-23T07:48:24.470Z,34.94
2019-03-23T07:50:54.868Z,34.75
2019-03-23T07:53:25.247Z,34.47
2019-03-23T07:55:56.240Z,34.67
2019-03-23T07:58:26.638Z,35.09
2019-03-23T08:00:57.030Z,35.14
2019-03-23T08:03:27.426Z,35.43
2019-03-23T08:05:58.331Z,34.88
2019-03-23T08:08:28.681Z,35.22
2019-03-23T08:10:59.037Z,35.61
2019-03-23T08:13:29.466Z,35.60
2019-03-23T08:15:59.969Z,36.32
2019-03-23T08:18:30.341Z,36.50
2019-03-23T08:21:00.727Z,37.00
2019-03-23T08:23:31.098Z,36.75
2019-03-23T08:26:01.464Z,36.62
2019-03-23T08:28:32.539Z,36.46
2019-03-23T08:31:02.859Z,36.70
2019-03-23T08:33:33.243Z,36.93
2019-03-23T08:36:03.648Z,36.83
2019-03-23T08:38:36.309Z,36.89
2019-03-23T08:41:06.684Z,37.57
2019-03-23T08:43:37.129Z,37.15
2019-03-23T08:46:07.493Z,37.08
2019-03-23T08:48:37.928Z,38.02
2019-03-23T08:51:08.292Z,38.15
2019-03-23T08:53:38.655Z,38.46
2019-03-23T08:56:09.023Z,38.23
2019-03-23T08:58:38.452Z,37.52
2019-03-23T09:01:08.833Z,38.10
2019-03-23T09:03:39.217Z,38.09
2019-03-23T09:06:09.593Z,37.96
2019-03-23T09:08:40.117Z,38.09
2019-03-23T09:11:20.250Z,38.11
2019-03-23T09:13:42.604Z,37.46
2019-03-23T09:16:13.008Z,38.12
2019-03-23T09:18:43.409Z,38.00
2019-03-23T09:21:13.789Z,36.91
2019-03-23T09:23:44.222Z,36.72
2019-03-23T09:26:14.768Z,36.79
2019-03-23T09:28:45.199Z,37.28
2019-03-23T09:31:15.589Z,37.04
2019-03-23T09:33:45.968Z,37.30
2019-03-23T09:36:16.347Z,37.57
2019-03-23T09:38:46.708Z,37.25
2019-03-23T09:41:17.072Z,37.98
2019-03-23T09:43:48.805Z,37.96
2019-03-23T09:46:19.172Z,37.59
2019-03-23T09:48:49.541Z,37.85
2019-03-23T09:51:19.918Z,37.79
2019-03-23T09:53:50.292Z,37.83
2019-03-23T09:56:20.650Z,36.82
2019-03-23T09:58:52.080Z,38.31
2019-03-23T10:01:22.447Z,37.71
2019-03-23T10:03:52.802Z,37.13
2019-03-23T10:06:23.168Z,37.42
2019-03-23T10:08:53.538Z,39.46
2019-03-23T10:11:24.880Z,37.93
2019-03-23T10:13:55.271Z,37.00
2019-03-23T10:16:25.668Z,38.48
2019-03-23T10:18:56.017Z,37.53
2019-03-23T10:21:26.376Z,38.39
2019-03-23T10:23:56.744Z,37.78
2019-03-23T10:26:28.976Z,37.70
2019-03-23T10:28:59.367Z,37.34
2019-03-23T10:31:29.735Z,38.27
2019-03-23T10:34:00.115Z,37.64
2019-03-23T10:36:30.623Z,37.49
2019-03-23T10:39:01.016Z,38.41
2019-03-23T10:41:32.469Z,39.08
2019-03-23T10:44:03.011Z,39.85
2019-03-23T10:46:33.680Z,40.37
2019-03-23T10:49:04.349Z,41.17
2019-03-23T10:51:34.708Z,42.91
2019-03-23T10:54:05.078Z,43.12
2019-03-23T10:56:35.466Z,44.21
2019-03-23T10:59:05.841Z,45.10
2019-03-23T11:01:36.231Z,45.16
2019-03-23T11:04:06.609Z,44.58
2019-03-23T11:06:37.024Z,44.05
2019-03-23T11:09:07.421Z,45.28
2019-03-23T11:11:37.867Z,44.46
2019-03-23T11:14:08.238Z,45.14
2019-03-23T11:16:38.686Z,45.14
2019-03-23T11:19:13.420Z,45.00
2019-03-23T11:21:41.108Z,44.83
2019-03-23T11:24:11.454Z,44.62
2019-03-23T11:26:41.831Z,44.49
2019-03-23T11:29:12.205Z,45.38
2019-03-23T11:31:42.607Z,45.37
2019-03-23T11:34:17.743Z,45.30
2019-03-23T11:36:45.684Z,44.28
2019-03-23T11:39:16.055Z,43.91
2019-03-23T11:41:46.529Z,44.82
2019-03-23T11:44:16.961Z,43.99
2019-03-23T11:46:48.746Z,44.39
2019-03-23T11:49:19.116Z,44.97
2019-03-23T11:51:49.610Z,44.19
2019-03-23T11:54:20.031Z,42.56
2019-03-23T11:56:50.711Z,43.11
2019-03-23T11:59:22.222Z,43.23
2019-03-23T12:01:52.620Z,42.27
2019-03-23T12:04:24.932Z,43.20
2019-03-23T12:06:55.357Z,43.55
2019-03-23T12:09:25.728Z,43.27
2019-03-23T12:11:56.191Z,43.79
2019-03-23T12:14:26.592Z,44.00
2019-03-23T12:16:57.296Z,42.71
2019-03-23T12:19:27.752Z,43.81
2019-03-23T12:21:58.123Z,44.21
2019-03-23T12:24:31.027Z,44.90
2019-03-23T12:27:01.680Z,44.91
2019-03-23T12:29:32.027Z,45.24
2019-03-23T12:32:02.401Z,43.31
2019-03-23T12:34:32.758Z,44.26
2019-03-23T12:37:03.112Z,42.81
2019-03-23T12:39:33.469Z,42.79
2019-03-23T12:42:03.838Z,42.86
2019-03-23T12:44:34.206Z,43.45
2019-03-23T12:47:04.583Z,43.99
2019-03-23T12:49:34.987Z,42.79
2019-03-23T12:52:05.446Z,42.61
2019-03-23T12:54:35.921Z,42.88
2019-03-23T12:57:06.436Z,42.29
2019-03-23T12:59:36.815Z,42.94
2019-03-23T13:02:07.304Z,41.63
2019-03-23T13:04:37.750Z,42.74
2019-03-23T13:07:08.203Z,43.07
2019-03-23T13:09:38.533Z,43.26
2019-03-23T13:12:08.918Z,41.94
2019-03-23T13:14:40.235Z,40.78
2019-03-23T13:17:10.629Z,43.43
2019-03-23T13:19:41.992Z,43.54
2019-03-23T13:22:12.369Z,43.22
2019-03-23T13:24:42.756Z,41.34
2019-03-23T13:27:13.146Z,41.84
2019-03-23T13:29:43.515Z,41.56
2019-03-23T13:32:13.945Z,42.13
2019-03-23T13:34:44.351Z,42.07
2019-03-23T13:37:16.180Z,41.87
2019-03-23T13:39:46.618Z,41.22
2019-03-23T13:42:17.011Z,42.71
2019-03-23T13:44:47.365Z,41.54
2019-03-23T13:47:17.745Z,41.14
2019-03-23T13:49:48.445Z,41.53
2019-03-23T13:52:19.862Z,41.07
2019-03-23T13:54:50.284Z,41.15
2019-03-23T13:57:20.633Z,41.45
2019-03-23T13:59:51.972Z,42.28
2019-03-23T14:02:22.441Z,41.93
2019-03-23T14:04:53.025Z,41.41
2019-03-23T14:07:23.408Z,42.90
2019-03-23T14:09:53.793Z,41.34
2019-03-23T14:12:24.502Z,41.85
2019-03-23T14:14:55.255Z,42.31
2019-03-23T14:17:25.872Z,40.70
2019-03-23T14:19:56.293Z,41.01
2019-03-23T14:22:26.704Z,40.95
2019-03-23T14:24:57.081Z,40.45
2019-03-23T14:27:27.472Z,40.45
2019-03-23T14:29:57.848Z,40.86
2019-03-23T14:32:28.215Z,41.23
2019-03-23T14:34:58.589Z,41.10
2019-03-23T14:37:28.953Z,42.04
2019-03-23T14:39:59.336Z,41.16
2019-03-23T14:42:29.993Z,41.41
2019-03-23T14:45:00.551Z,41.38
2019-03-23T14:47:31.001Z,40.77
2019-03-23T14:50:01.368Z,41.39
2019-03-23T14:52:31.757Z,41.78
2019-03-23T14:55:02.132Z,41.84
2019-03-23T14:57:32.502Z,41.21
2019-03-23T15:00:03.380Z,43.01
2019-03-23T15:02:34.435Z,42.69
2019-03-23T15:05:06.858Z,41.83
2019-03-23T15:07:39.021Z,40.60
2019-03-23T15:10:09.833Z,40.47
2019-03-23T15:12:40.239Z,41.46
2019-03-23T15:15:10.601Z,41.54
2019-03-23T15:17:48.428Z,40.96
2019-03-23T15:20:13.311Z,42.67
2019-03-23T15:22:43.665Z,41.47
2019-03-23T15:25:14.401Z,41.82
2019-03-23T15:27:44.781Z,42.10
2019-03-23T15:30:15.236Z,43.65
2019-03-23T15:32:45.670Z,42.46
2019-03-23T15:35:16.311Z,42.05
2019-03-23T15:37:47.468Z,41.88
2019-03-23T15:40:17.862Z,42.74
2019-03-23T15:42:48.258Z,42.23
2019-03-23T15:45:19.257Z,43.29
2019-03-23T15:47:49.639Z,43.89
2019-03-23T15:50:20.043Z,43.69
2019-03-23T15:52:52.297Z,44.34
2019-03-23T15:55:22.910Z,44.43
2019-03-23T15:57:53.230Z,44.40
2019-03-23T16:00:23.602Z,44.35
2019-03-23T16:02:54.585Z,44.05
2019-03-23T16:05:25.303Z,44.91
2019-03-23T16:07:55.756Z,45.25
2019-03-23T16:10:26.544Z,45.37
2019-03-23T16:12:57.018Z,45.67
2019-03-23T16:15:27.609Z,46.10
2019-03-23T16:17:57.976Z,45.53
2019-03-23T16:20:28.501Z,45.84
2019-03-23T16:22:59.132Z,45.16
2019-03-23T16:25:30.120Z,44.80
2019-03-23T16:28:00.857Z,44.69
2019-03-23T16:30:32.182Z,45.12
2019-03-23T16:33:02.539Z,45.37
2019-03-23T16:35:32.910Z,45.20
2019-03-23T16:38:03.289Z,45.75
2019-03-23T16:40:33.835Z,47.03
2019-03-23T16:43:06.265Z,48.40
2019-03-23T16:45:36.250Z,51.71
2019-03-23T16:48:06.647Z,53.15
2019-03-23T16:50:37.036Z,54.17
2019-03-23T16:53:07.555Z,53.25
2019-03-23T16:55:38.236Z,54.25
2019-03-23T16:58:15.934Z,54.13
2019-03-23T17:00:41.182Z,54.30
2019-03-23T17:03:12.611Z,54.50
2019-03-23T17:05:43.470Z,54.80
2019-03-23T17:08:14.150Z,54.63
2019-03-23T17:10:44.935Z,54.84
2019-03-23T17:13:15.893Z,55.01
2019-03-23T17:15:46.387Z,55.26
2019-03-23T17:18:16.825Z,55.00
2019-03-23T17:20:48.294Z,55.59
2019-03-23T17:23:18.666Z,56.71
2019-03-23T17:25:49.021Z,55.97
2019-03-23T17:28:20.521Z,51.88
2019-03-23T17:30:52.106Z,50.59
2019-03-23T17:33:22.469Z,49.64
2019-03-23T17:35:52.879Z,48.00
2019-03-23T17:38:23.227Z,48.76
2019-03-23T17:40:55.024Z,49.43
2019-03-23T17:43:25.412Z,51.45
2019-03-23T17:45:55.858Z,52.87
2019-03-23T17:48:26.249Z,54.61
2019-03-23T17:50:56.606Z,55.71
2019-03-23T17:53:26.989Z,58.12
2019-03-23T17:55:57.488Z,59.42
2019-03-23T17:58:29.424Z,60.05
2019-03-23T18:00:59.778Z,61.11
2019-03-23T18:03:30.167Z,61.39
2019-03-23T18:06:00.544Z,62.05
2019-03-23T18:08:30.917Z,61.92
2019-03-23T18:11:01.291Z,61.91
2019-03-23T18:13:32.781Z,62.56
2019-03-23T18:16:03.153Z,62.52
2019-03-23T18:18:33.527Z,62.52
2019-03-23T18:21:03.908Z,62.30
2019-03-23T18:23:34.281Z,62.22
2019-03-23T18:26:04.655Z,61.94
2019-03-23T18:28:35.026Z,62.48
2019-03-23T18:31:05.395Z,62.37
2019-03-23T18:33:35.768Z,62.27
2019-03-23T18:36:06.142Z,62.54
2019-03-23T18:38:36.874Z,61.82
2019-03-23T18:41:07.332Z,62.21
2019-03-23T18:43:38.486Z,62.15
2019-03-23T18:46:08.834Z,61.13
2019-03-23T18:48:39.212Z,61.12
2019-03-23T18:51:09.582Z,59.94
2019-03-23T18:53:39.942Z,60.75
2019-03-23T18:56:10.343Z,59.49
2019-03-23T18:58:40.746Z,59.65
2019-03-23T19:01:12.460Z,59.40
2019-03-23T19:03:42.845Z,59.13
2019-03-23T19:06:15.967Z,59.56
2019-03-23T19:08:46.427Z,59.05
2019-03-23T19:11:16.887Z,58.73
2019-03-23T19:13:48.596Z,58.82
2019-03-23T19:16:19.463Z,60.37
2019-03-23T19:18:49.846Z,60.47
2019-03-23T19:21:20.245Z,59.00
2019-03-23T19:23:50.678Z,60.25
2019-03-23T19:26:23.842Z,59.35
2019-03-23T19:28:54.265Z,58.55
2019-03-23T19:31:28.080Z,58.55
2019-03-23T19:33:58.699Z,58.57
2019-03-23T19:36:29.302Z,59.13
2019-03-23T19:39:00.226Z,59.50
2019-03-23T19:41:30.638Z,59.07
2019-03-23T19:44:01.032Z,58.90
2019-03-23T19:46:31.432Z,58.98
2019-03-23T19:49:01.801Z,58.94
2019-03-23T19:51:32.246Z,58.48
2019-03-23T19:54:02.655Z,58.11
2019-03-23T19:56:33.032Z,58.17
2019-03-23T19:59:03.494Z,59.57
2019-03-23T20:01:34.581Z,59.92
2019-03-23T20:04:06.454Z,59.13
2019-03-23T20:06:36.769Z,58.93
2019-03-23T20:09:08.513Z,58.80
2019-03-23T20:11:38.898Z,59.10
2019-03-23T20:14:09.276Z,58.68
2019-03-23T20:16:40.390Z,58.79
2019-03-23T20:19:11.649Z,58.19
2019-03-23T20:21:42.026Z,57.97
2019-03-23T20:24:12.440Z,58.99
2019-03-23T20:26:42.840Z,59.15
2019-03-23T20:29:13.243Z,60.17
2019-03-23T20:31:45.718Z,60.70
2019-03-23T20:34:16.099Z,60.52
2019-03-23T20:36:46.580Z,60.38
2019-03-23T20:39:16.963Z,60.59
2019-03-23T20:41:48.090Z,60.77
2019-03-23T20:44:18.967Z,60.91
2019-03-23T20:46:49.491Z,61.79
2019-03-23T20:49:20.364Z,62.40
2019-03-23T20:51:52.273Z,62.07
2019-03-23T20:54:24.309Z,61.95
2019-03-23T20:56:54.687Z,61.61
2019-03-23T20:59:25.165Z,61.46
2019-03-23T21:01:55.652Z,61.98
2019-03-23T21:04:26.021Z,61.41
2019-03-23T21:06:57.493Z,60.35
2019-03-23T21:09:28.199Z,61.53
2019-03-23T21:11:59.251Z,60.79
2019-03-23T21:14:29.677Z,61.50
2019-03-23T21:17:00.073Z,61.94
2019-03-23T21:19:30.983Z,62.72
2019-03-23T21:22:01.818Z,62.63
2019-03-23T21:24:33.121Z,62.11
2019-03-23T21:27:03.498Z,62.49
2019-03-23T21:29:33.877Z,61.44
2019-03-23T21:32:04.272Z,61.22
2019-03-23T21:34:34.639Z,60.67
2019-03-23T21:37:05.056Z,59.55
2019-03-23T21:39:35.453Z,60.05
2019-03-23T21:42:05.831Z,60.63
2019-03-23T21:44:36.262Z,60.22
2019-03-23T21:47:06.671Z,59.19
2019-03-23T21:49:37.431Z,59.44
2019-03-23T21:52:08.491Z,59.99
2019-03-23T21:54:38.888Z,59.98
2019-03-23T21:57:09.293Z,58.58
2019-03-23T21:59:39.694Z,58.86
2019-03-23T22:02:10.087Z,59.63
2019-03-23T22:04:42.854Z,60.29
2019-03-23T22:07:14.221Z,59.18
2019-03-23T22:09:44.654Z,60.33
2019-03-23T22:12:15.102Z,59.81
2019-03-23T22:14:45.863Z,59.97
2019-03-23T22:17:16.252Z,60.95
2019-03-23T22:19:46.624Z,60.94
2019-03-23T22:22:17.014Z,61.33
2019-03-23T22:24:47.409Z,60.50
2019-03-23T22:27:19.188Z,60.95
2019-03-23T22:29:49.742Z,61.07
2019-03-23T22:32:21.724Z,61.58
2019-03-23T22:34:52.117Z,60.90
2019-03-23T22:37:22.490Z,60.80
2019-03-23T22:39:53.594Z,60.37
2019-03-23T22:42:24.041Z,59.45
2019-03-23T22:44:54.430Z,59.92
2019-03-23T22:47:27.311Z,59.77
2019-03-23T22:49:58.685Z,58.73
2019-03-23T22:52:29.090Z,58.68
2019-03-23T22:54:59.475Z,58.85
2019-03-23T22:57:29.842Z,58.53
2019-03-23T23:00:00.578Z,58.49
2019-03-23T23:02:31.155Z,58.99
2019-03-23T23:05:01.544Z,58.25
2019-03-23T23:07:32.005Z,58.98
2019-03-23T23:10:02.316Z,58.47
2019-03-23T23:12:32.773Z,58.17
2019-03-23T23:15:04.723Z,59.11
2019-03-23T23:17:35.504Z,58.86
2019-03-23T23:20:07.237Z,59.65
2019-03-23T23:22:39.649Z,59.44
2019-03-23T23:25:10.421Z,59.29
2019-03-23T23:27:40.897Z,59.91
2019-03-23T23:30:11.669Z,60.40
2019-03-23T23:32:42.057Z,60.28
2019-03-23T23:35:12.407Z,60.86
2019-03-23T23:37:42.783Z,60.36
2019-03-23T23:40:13.133Z,59.88
2019-03-23T23:42:44.637Z,60.53
2019-03-23T23:45:16.116Z,60.21
2019-03-23T23:47:46.511Z,60.63
2019-03-23T23:50:16.911Z,59.97
2019-03-23T23:52:48.363Z,59.28
2019-03-23T23:55:18.878Z,59.19
2019-03-23T23:57:49.294Z,59.70
